HunTS Point — WDH2432 — position and weather

sailwx.info

Track history (hours):
 
Tides and Currents Weather Stations Pressure Air Temp Water Temp Dewpoint Dewpoint Depression Visibility Wind Speed Wind Dir Waves Ship Positions

HunTS Point

Owner: NEW YORK, CITY OF, BROOKLYN, NY. More information available from US FCC via Universal Licensing System and Coast Guard Vessel Documentation Center.

Last reported at 2018-Jan-18 19:29 UTC. Time now 2018-Jan-18 19:43 UTC.
Position N 40°38' W 074°08'.

Length 88 m; draft 4.3 m.

Type: Tanker. MMSI: 367597530.

Date/timePositionNaut miles runAvg speedWind from/ knotsBaromVisibWave heightAir tempDewpointWater temp
2018-Jan-18 19:29N 40°38' W 074°08'0 0.0
2018-Jan-18 18:59N 40°38' W 074°08'0 0.0
2018-Jan-18 18:29N 40°38' W 074°08'0 0.0
2018-Jan-18 18:01N 40°38' W 074°08'1 1.5
2018-Jan-18 17:30N 40°39' W 074°07'4 7.9
2018-Jan-18 17:00N 40°41' W 074°02'510.1
2018-Jan-18 16:29N 40°44' W 073°57'0 0.9
2018-Jan-18 16:01N 40°44' W 073°57'0 0.0
2018-Jan-18 15:29N 40°44' W 073°57'0 0.0
2018-Jan-18 15:00N 40°44' W 073°57'0 0.0
2018-Jan-18 14:30N 40°44' W 073°57'0 0.0
2018-Jan-18 14:00N 40°44' W 073°57'0 0.6
2018-Jan-18 13:30N 40°44' W 073°57'3 4.0
2018-Jan-18 12:51N 40°47' W 073°56'1 0.1
2018-Jan-18 05:30N 40°47' W 073°55'0 0.0
2018-Jan-18 05:00N 40°47' W 073°55'0 0.0
2018-Jan-18 04:28N 40°47' W 073°55'0 0.0
2018-Jan-18 04:00N 40°47' W 073°55'0 0.0
2018-Jan-18 03:31N 40°47' W 073°55'0 0.0
2018-Jan-18 03:00N 40°47' W 073°55'0 0.0
2018-Jan-18 02:29N 40°47' W 073°55'0 0.0
2018-Jan-18 01:58N 40°47' W 073°55'0 0.0
2018-Jan-18 01:30N 40°47' W 073°55'0 0.0
2018-Jan-18 01:00N 40°47' W 073°55'0 0.0
2018-Jan-18 00:01N 40°47' W 073°55'0 0.1
2018-Jan-17 23:58N 40°47' W 073°55'  
2018-Jan-11 18:37N 40°45' W 073°57'1 9.7
2018-Jan-11 18:30N 40°45' W 073°58'0 0.1
2018-Jan-11 15:16N 40°44' W 073°58'1 0.1
2018-Jan-10 22:46N 40°46' W 073°57'3 8.6
2018-Jan-10 22:29N 40°43' W 073°58'5 9.8
2018-Jan-10 22:00N 40°40' W 074°03'4 4.4
2018-Jan-10 21:07N 40°42' W 074°07'0 3.7
2018-Jan-10 21:00N 40°42' W 074°07'0 0.6
2018-Jan-10 20:28N 40°43' W 074°07'0 0.0
2018-Jan-10 19:59N 40°43' W 074°07'0 0.0
2018-Jan-10 19:31N 40°43' W 074°07'0 0.4
2018-Jan-10 18:59N 40°43' W 074°07'0 0.7
2018-Jan-10 18:26N 40°42' W 074°07'4 2.4
2018-Jan-10 16:58N 40°39' W 074°05'3 0.1
2018-Jan-09 17:20N 40°36' W 074°02'310.0
2018-Jan-09 17:01N 40°39' W 074°02'4 8.2
2018-Jan-09 16:30N 40°43' W 073°58'2 0.1
2018-Jan-08 23:24N 40°45' W 073°58'3 7.0
2018-Jan-08 22:56N 40°42' W 073°60'4 8.7
2018-Jan-08 22:31N 40°39' W 074°02'0 0.2
2018-Jan-08 22:01N 40°39' W 074°02'0 0.0
2018-Jan-08 21:29N 40°39' W 074°02'0 0.0
2018-Jan-08 21:01N 40°39' W 074°02'1 1.5
2018-Jan-08 20:30N 40°39' W 074°02'  
Track history (hours):
 
Tides and Currents Weather Stations Pressure Air Temp Water Temp Dewpoint Dewpoint Depression Visibility Wind Speed Wind Dir Waves Ship Positions

HunTS Point

Owner: NEW YORK, CITY OF, BROOKLYN, NY. More information available from US FCC via Universal Licensing System and Coast Guard Vessel Documentation Center.

Last reported at 2018-Jan-18 19:29 UTC. Time now 2018-Jan-18 19:43 UTC.
Position N 40°38' W 074°08'.

Length 88 m; draft 4.3 m.

Type: Tanker. MMSI: 367597530.

Date/timePositionNaut miles runAvg speedWind from/ knotsBaromVisibWave heightAir tempDewpointWater temp
2018-Jan-18 19:29N 40°38' W 074°08'0 0.0
2018-Jan-18 18:59N 40°38' W 074°08'0 0.0
2018-Jan-18 18:29N 40°38' W 074°08'0 0.0
2018-Jan-18 18:01N 40°38' W 074°08'1 1.5
2018-Jan-18 17:30N 40°39' W 074°07'4 7.9
2018-Jan-18 17:00N 40°41' W 074°02'510.1
2018-Jan-18 16:29N 40°44' W 073°57'0 0.9
2018-Jan-18 16:01N 40°44' W 073°57'0 0.0
2018-Jan-18 15:29N 40°44' W 073°57'0 0.0
2018-Jan-18 15:00N 40°44' W 073°57'0 0.0
2018-Jan-18 14:30N 40°44' W 073°57'0 0.0
2018-Jan-18 14:00N 40°44' W 073°57'0 0.6
2018-Jan-18 13:30N 40°44' W 073°57'3 4.0
2018-Jan-18 12:51N 40°47' W 073°56'1 0.1
2018-Jan-18 05:30N 40°47' W 073°55'0 0.0
2018-Jan-18 05:00N 40°47' W 073°55'0 0.0
2018-Jan-18 04:28N 40°47' W 073°55'0 0.0
2018-Jan-18 04:00N 40°47' W 073°55'0 0.0
2018-Jan-18 03:31N 40°47' W 073°55'0 0.0
2018-Jan-18 03:00N 40°47' W 073°55'0 0.0
2018-Jan-18 02:29N 40°47' W 073°55'0 0.0
2018-Jan-18 01:58N 40°47' W 073°55'0 0.0
2018-Jan-18 01:30N 40°47' W 073°55'0 0.0
2018-Jan-18 01:00N 40°47' W 073°55'0 0.0
2018-Jan-18 00:01N 40°47' W 073°55'0 0.1
2018-Jan-17 23:58N 40°47' W 073°55'  
2018-Jan-11 18:37N 40°45' W 073°57'1 9.7
2018-Jan-11 18:30N 40°45' W 073°58'0 0.1
2018-Jan-11 15:16N 40°44' W 073°58'1 0.1
2018-Jan-10 22:46N 40°46' W 073°57'3 8.6
2018-Jan-10 22:29N 40°43' W 073°58'5 9.8
2018-Jan-10 22:00N 40°40' W 074°03'4 4.4
2018-Jan-10 21:07N 40°42' W 074°07'0 3.7
2018-Jan-10 21:00N 40°42' W 074°07'0 0.6
2018-Jan-10 20:28N 40°43' W 074°07'0 0.0
2018-Jan-10 19:59N 40°43' W 074°07'0 0.0
2018-Jan-10 19:31N 40°43' W 074°07'0 0.4
2018-Jan-10 18:59N 40°43' W 074°07'0 0.7
2018-Jan-10 18:26N 40°42' W 074°07'4 2.4
2018-Jan-10 16:58N 40°39' W 074°05'3 0.1
2018-Jan-09 17:20N 40°36' W 074°02'310.0
2018-Jan-09 17:01N 40°39' W 074°02'4 8.2
2018-Jan-09 16:30N 40°43' W 073°58'2 0.1
2018-Jan-08 23:24N 40°45' W 073°58'3 7.0
2018-Jan-08 22:56N 40°42' W 073°60'4 8.7
2018-Jan-08 22:31N 40°39' W 074°02'0 0.2
2018-Jan-08 22:01N 40°39' W 074°02'0 0.0
2018-Jan-08 21:29N 40°39' W 074°02'0 0.0
2018-Jan-08 21:01N 40°39' W 074°02'1 1.5
2018-Jan-08 20:30N 40°39' W 074°02'  

Dump ship's entire track history